Etusivu
METAR-TAF:

METAR-TAF

Lentoasemat :

Sandpoint Airport (Dave Wall Field)

Sandpoint, Idaho, Yhdysvallat

Leveyspiiri: 48-17-58N, Pituuspiiri: 116-33-36W, korkeus merenpinnasta: 648 m

Tämänhetkinen sää

Tämä raportti tehtiin 21 minuuttia sitten, kello 11.55 UTC
Tuuli 4 kn etelästä
Lämpötila 6°C
Kosteus 93%
Ilmanpaine 1019 hPa
Näkyvyys: 16.1 km
Hajonneita pilviä 2400 ft:n korkeudessa
Pilvistä 3200 ft:n korkeudessa

METAR: KSZT 181155Z AUTO 18004KT 10SM BKN024 OVC032 06/05 A3008 RMK AO2

Aika: 04:16 (12:16 UTC)


TAF: puuttuu

Säähavainnot ja -ennusteet yli 4000 lentoasemalta (METAR- ja TAF-raportit).

Käytössä olevat sääasemat on merkitty karttaan keltaisilla ja punaisilla pisteillä.

Aseta hiiri pisteen päälle nähdäksesi sääaseman nimen.

Klikkaa sitten nähdäksesi säähavainnot ja -ennusteet.

Kartan vaihtaminen: klikkaa mustalla rastilla varustettuja vihreitä pisteitä, niin voit zoomata sisään; viivalla varustettua vihreää pistettä, niin voit zoomata ulos tai vihreitä nuolia, niin pääset viereisille kartoille.


METAR-TAF: